createdAt,value
2023-01-23T00:00:16.024Z,100560.23
2023-01-23T00:03:04.730Z,100563.21
2023-01-23T00:05:33.076Z,100565.50
2023-01-23T00:08:01.326Z,100563.58
2023-01-23T00:10:29.588Z,100560.94
2023-01-23T00:12:57.899Z,100556.58
2023-01-23T00:15:27.475Z,100558.83
2023-01-23T00:17:55.798Z,100559.36
2023-01-23T00:20:24.199Z,100563.56
2023-01-23T00:22:52.404Z,100568.27
2023-01-23T00:25:20.742Z,100575.27
2023-01-23T00:27:49.072Z,100577.71
2023-01-23T00:30:18.019Z,100583.32
2023-01-23T00:32:46.701Z,100588.58
2023-01-23T00:35:15.107Z,100590.16
2023-01-23T00:37:43.905Z,100595.91
2023-01-23T00:40:13.337Z,100602.02
2023-01-23T00:42:41.721Z,100604.14
2023-01-23T00:45:10.357Z,100608.89
2023-01-23T00:47:38.799Z,100604.67
2023-01-23T00:50:07.446Z,100594.36
2023-01-23T00:52:35.833Z,100593.12
2023-01-23T00:55:06.017Z,100589.98
2023-01-23T00:57:34.298Z,100596.95
2023-01-23T01:00:02.807Z,100596.60
2023-01-23T01:02:31.353Z,100597.30
2023-01-23T01:05:02.334Z,100607.09
2023-01-23T01:07:30.679Z,100616.55
2023-01-23T01:09:58.976Z,100619.35
2023-01-23T01:12:27.591Z,100616.38
2023-01-23T01:14:55.903Z,100614.98
2023-01-23T01:17:24.250Z,100615.51
2023-01-23T01:19:52.643Z,100616.58
2023-01-23T01:22:21.599Z,100617.00
2023-01-23T01:24:49.961Z,100618.42
2023-01-23T01:27:18.424Z,100617.90
2023-01-23T01:29:46.691Z,100623.87
2023-01-23T01:32:14.945Z,100622.47
2023-01-23T01:34:43.237Z,100619.67
2023-01-23T01:37:11.495Z,100621.04
2023-01-23T01:39:39.782Z,100622.63
2023-01-23T01:42:08.293Z,100616.31
2023-01-23T01:45:00.284Z,100610.89
2023-01-23T01:47:29.177Z,100605.16
2023-01-23T01:50:06.629Z,100602.23
2023-01-23T01:52:35.011Z,100604.20
2023-01-23T01:55:05.935Z,100610.70
2023-01-23T01:57:41.958Z,100616.29
2023-01-23T02:00:19.860Z,100618.03
2023-01-23T02:02:55.528Z,100621.70
2023-01-23T02:05:30.275Z,100619.39
2023-01-23T02:08:23.589Z,100619.90
2023-01-23T02:10:53.494Z,100618.46
2023-01-23T02:13:26.046Z,100610.77
2023-01-23T02:15:54.702Z,100613.58
2023-01-23T02:18:24.895Z,100613.23
2023-01-23T02:20:54.980Z,100609.77
2023-01-23T02:23:48.026Z,100614.37
2023-01-23T02:26:29.380Z,100615.42
2023-01-23T02:28:59.580Z,100620.84
2023-01-23T02:31:31.929Z,100622.77
2023-01-23T02:34:00.940Z,100622.95
2023-01-23T02:36:32.755Z,100626.81
2023-01-23T02:39:04.519Z,100627.66
2023-01-23T02:41:39.385Z,100628.18
2023-01-23T02:44:18.044Z,100629.77
2023-01-23T02:46:50.594Z,100634.48
2023-01-23T02:49:20.317Z,100639.87
2023-01-23T02:51:50.787Z,100643.16
2023-01-23T02:54:19.738Z,100648.73
2023-01-23T02:56:48.390Z,100647.83
2023-01-23T02:59:36.124Z,100649.23
2023-01-23T03:02:06.524Z,100648.71
2023-01-23T03:04:34.999Z,100651.85
2023-01-23T03:07:03.439Z,100652.02
2023-01-23T03:09:31.770Z,100652.89
2023-01-23T03:12:00.952Z,100652.20
2023-01-23T03:14:30.317Z,100656.73
2023-01-23T03:17:00.640Z,100657.92
2023-01-23T03:19:32.974Z,100662.46
2023-01-23T03:22:01.371Z,100661.92
2023-01-23T03:24:29.706Z,100660.70
2023-01-23T03:26:58.079Z,100659.64
2023-01-23T03:29:46.378Z,100657.02
2023-01-23T03:32:17.205Z,100655.42
2023-01-23T03:34:46.314Z,100656.30
2023-01-23T03:37:15.566Z,100662.08
2023-01-23T03:40:05.329Z,100665.25
2023-01-23T03:42:35.167Z,100665.45
2023-01-23T03:45:04.960Z,100665.09
2023-01-23T03:47:35.611Z,100670.17
2023-01-23T03:50:04.451Z,100671.61
2023-01-23T03:52:38.159Z,100677.02
2023-01-23T03:55:07.644Z,100684.34
2023-01-23T03:57:37.801Z,100688.25
2023-01-23T04:00:17.127Z,100693.15
2023-01-23T04:02:58.424Z,100695.27
2023-01-23T04:05:26.839Z,100699.69
2023-01-23T04:07:55.115Z,100699.55
2023-01-23T04:10:23.552Z,100698.48
2023-01-23T04:13:02.051Z,100698.13
2023-01-23T04:15:33.861Z,100700.21
2023-01-23T04:18:03.536Z,100701.60
2023-01-23T04:20:31.895Z,100697.56
2023-01-23T04:23:00.359Z,100699.67
2023-01-23T04:25:29.712Z,100698.09
2023-01-23T04:27:58.159Z,100701.77
2023-01-23T04:30:26.473Z,100702.46
2023-01-23T04:32:55.014Z,100708.60
2023-01-23T04:35:24.638Z,100710.91
2023-01-23T04:37:53.126Z,100716.00
2023-01-23T04:40:22.425Z,100720.56
2023-01-23T04:42:57.024Z,100719.34
2023-01-23T04:45:33.398Z,100720.20
2023-01-23T04:48:20.780Z,100725.96
2023-01-23T04:50:50.143Z,100728.39
2023-01-23T04:53:18.697Z,100727.55
2023-01-23T04:55:49.549Z,100727.05
2023-01-23T04:58:19.857Z,100725.50
2023-01-23T05:00:48.421Z,100722.88
2023-01-23T05:03:17.914Z,100717.98
2023-01-23T05:05:48.451Z,100713.77
2023-01-23T05:08:17.070Z,100713.59
2023-01-23T05:10:50.439Z,100713.59
2023-01-23T05:13:19.834Z,100725.31
2023-01-23T05:15:48.926Z,100730.05
2023-01-23T05:18:17.926Z,100726.04
2023-01-23T05:20:47.328Z,100723.58
2023-01-23T05:23:15.673Z,100723.91
2023-01-23T05:25:48.647Z,100724.64
2023-01-23T05:28:17.086Z,100726.39
2023-01-23T05:30:49.345Z,100725.84
2023-01-23T05:33:24.043Z,100722.67
2023-01-23T05:35:52.389Z,100727.56
2023-01-23T05:38:20.773Z,100727.04
2023-01-23T05:40:51.066Z,100728.24
2023-01-23T05:43:50.351Z,100727.72
2023-01-23T05:46:29.928Z,100732.63
2023-01-23T05:48:58.327Z,100737.89
2023-01-23T05:51:32.695Z,100739.63
2023-01-23T05:54:03.102Z,100744.36
2023-01-23T05:56:31.731Z,100747.70
2023-01-23T05:59:38.413Z,100752.59
2023-01-23T06:02:19.200Z,100757.84
2023-01-23T06:05:20.837Z,100760.66
2023-01-23T06:08:03.255Z,100767.69
2023-01-23T06:10:31.814Z,100768.02
2023-01-23T06:13:00.174Z,100768.34
2023-01-23T06:15:28.635Z,100772.02
2023-01-23T06:17:57.847Z,100776.72
2023-01-23T06:20:26.981Z,100776.20
2023-01-23T06:22:55.386Z,100779.88
2023-01-23T06:25:24.867Z,100780.05
2023-01-23T06:27:55.110Z,100785.98
2023-01-23T06:30:24.671Z,100795.09
2023-01-23T06:32:53.164Z,100799.98
2023-01-23T06:35:26.017Z,100801.89
2023-01-23T06:37:54.446Z,100804.31
2023-01-23T06:40:24.007Z,100803.96
2023-01-23T06:43:11.601Z,100805.36
2023-01-23T06:45:45.339Z,100806.58
2023-01-23T06:48:14.492Z,100813.54
2023-01-23T06:50:44.167Z,100814.41
2023-01-23T06:53:15.558Z,100812.45
2023-01-23T06:55:45.464Z,100807.90
2023-01-23T06:58:14.694Z,100805.96
2023-01-23T07:00:44.676Z,100806.84
2023-01-23T07:03:17.777Z,100807.51
2023-01-23T07:05:46.090Z,100809.58
2023-01-23T07:08:14.955Z,100813.05
2023-01-23T07:10:43.517Z,100816.34
2023-01-23T07:13:12.932Z,100817.04
2023-01-23T07:15:41.344Z,100815.46
2023-01-23T07:18:10.535Z,100817.71
2023-01-23T07:20:38.864Z,100820.31
2023-01-23T07:23:07.236Z,100818.17
2023-01-23T07:25:35.708Z,100814.80
2023-01-23T07:28:04.938Z,100815.44
2023-01-23T07:30:34.318Z,100817.66
2023-01-23T07:33:03.711Z,100819.35
2023-01-23T07:35:32.383Z,100823.85
2023-01-23T07:38:00.612Z,100828.16
2023-01-23T07:40:29.416Z,100831.23
2023-01-23T07:42:57.894Z,100833.65
2023-01-23T07:45:26.238Z,100832.90
2023-01-23T07:47:54.631Z,100827.25
2023-01-23T07:50:23.156Z,100831.27
2023-01-23T07:52:51.805Z,100837.20
2023-01-23T07:55:20.242Z,100832.80
2023-01-23T07:57:48.628Z,100834.38
2023-01-23T08:00:17.371Z,100834.55
2023-01-23T08:02:45.789Z,100838.59
2023-01-23T08:05:14.162Z,100840.65
2023-01-23T08:07:42.606Z,100842.17
2023-01-23T08:10:11.825Z,100843.36
2023-01-23T08:12:40.231Z,100840.92
2023-01-23T08:15:08.962Z,100844.55
2023-01-23T08:17:37.560Z,100842.55
2023-01-23T08:20:06.377Z,100845.80
2023-01-23T08:22:34.645Z,100844.46
2023-01-23T08:25:03.164Z,100843.48
2023-01-23T08:27:31.456Z,100843.39
2023-01-23T08:29:59.686Z,100846.48
2023-01-23T08:32:28.868Z,100844.66
2023-01-23T08:34:57.204Z,100848.79
2023-01-23T08:37:25.598Z,100850.34
2023-01-23T08:39:53.965Z,100846.15
2023-01-23T08:42:22.294Z,100852.33
2023-01-23T08:44:50.714Z,100858.61
2023-01-23T08:47:19.100Z,100862.02
2023-01-23T08:49:47.346Z,100869.67
2023-01-23T08:52:15.607Z,100875.23
2023-01-23T08:54:43.879Z,100874.84
2023-01-23T08:57:12.154Z,100868.80
2023-01-23T08:59:42.728Z,100868.17
2023-01-23T09:02:14.326Z,100867.20
2023-01-23T09:04:42.688Z,100872.58
2023-01-23T09:07:10.947Z,100875.68
2023-01-23T09:09:39.556Z,100877.91
2023-01-23T09:12:08.542Z,100879.08
2023-01-23T09:14:36.890Z,100873.74
2023-01-23T09:17:06.001Z,100870.69
2023-01-23T09:19:34.641Z,100870.45
2023-01-23T09:22:03.730Z,100870.02
2023-01-23T09:24:32.154Z,100869.75
2023-01-23T09:27:00.417Z,100871.96
2023-01-23T09:29:28.751Z,100868.02
2023-01-23T09:31:58.842Z,100859.70
2023-01-23T09:34:27.144Z,100856.29
2023-01-23T09:36:55.946Z,100855.48
2023-01-23T09:39:24.318Z,100855.38
2023-01-23T09:41:53.652Z,100852.01
2023-01-23T09:44:35.045Z,100852.48
2023-01-23T09:47:27.539Z,100857.05
2023-01-23T09:50:02.971Z,100861.33
2023-01-23T09:52:37.164Z,100859.34
2023-01-23T09:55:28.862Z,100854.07
2023-01-23T09:58:01.190Z,100852.63
2023-01-23T10:00:32.288Z,100852.40
2023-01-23T10:03:03.700Z,100850.58
2023-01-23T10:05:37.295Z,100849.45
2023-01-23T10:08:33.020Z,100848.35
2023-01-23T10:11:12.681Z,100841.94
2023-01-23T10:14:05.312Z,100838.44
2023-01-23T10:16:52.613Z,100838.29
2023-01-23T10:19:58.248Z,100837.96
2023-01-23T10:22:34.662Z,100838.05
2023-01-23T10:25:13.299Z,100840.30
2023-01-23T10:27:46.485Z,100842.90
2023-01-23T10:30:33.587Z,100840.73
2023-01-23T10:33:15.382Z,100835.98
2023-01-23T10:35:58.882Z,100838.08
2023-01-23T10:38:49.546Z,100839.10
2023-01-23T10:41:23.362Z,100839.44
2023-01-23T10:43:55.404Z,100837.98
2023-01-23T10:46:40.013Z,100831.95
2023-01-23T10:49:30.598Z,100831.23
2023-01-23T10:52:05.762Z,100830.11
2023-01-23T10:54:50.684Z,100829.98
2023-01-23T10:57:25.727Z,100824.95
2023-01-23T11:00:30.042Z,100825.37
2023-01-23T11:03:19.187Z,100826.04
2023-01-23T11:06:22.362Z,100822.05
2023-01-23T11:09:04.316Z,100817.65
2023-01-23T11:11:57.934Z,100814.30
2023-01-23T11:14:31.477Z,100811.54
2023-01-23T11:17:25.623Z,100809.79
2023-01-23T11:20:10.137Z,100809.09
2023-01-23T11:22:44.309Z,100804.87
2023-01-23T11:25:41.551Z,100806.97
2023-01-23T11:28:25.721Z,100808.45
2023-01-23T11:31:23.696Z,100808.69
2023-01-23T11:34:11.660Z,100808.23
2023-01-23T11:37:02.710Z,100804.63
2023-01-23T11:39:56.298Z,100802.10
2023-01-23T11:42:29.598Z,100803.98
2023-01-23T11:45:02.188Z,100804.29
2023-01-23T11:47:42.663Z,100804.42
2023-01-23T11:50:56.375Z,100801.44
2023-01-23T11:53:42.157Z,100800.27
2023-01-23T11:56:17.111Z,100799.75
2023-01-23T11:58:50.423Z,100799.61
2023-01-23T12:02:05.200Z,100801.52
2023-01-23T12:05:11.439Z,100804.83
2023-01-23T12:07:58.022Z,100805.46
2023-01-23T12:10:56.410Z,100803.31
2023-01-23T12:13:42.252Z,100804.70
2023-01-23T12:16:25.083Z,100800.84
2023-01-23T12:19:29.102Z,100802.55
2023-01-23T12:22:08.599Z,100799.02
2023-01-23T12:24:44.738Z,100797.95
2023-01-23T12:27:36.420Z,100801.15
2023-01-23T12:30:32.225Z,100795.23
2023-01-23T12:33:17.564Z,100797.17
2023-01-23T12:36:26.916Z,100801.02
2023-01-23T12:39:37.747Z,100799.64
2023-01-23T12:42:37.737Z,100797.19
2023-01-23T12:45:31.570Z,100800.53
2023-01-23T12:48:13.050Z,100801.91
2023-01-23T12:51:26.018Z,100800.15
2023-01-23T12:53:59.008Z,100798.59
2023-01-23T12:56:34.140Z,100799.63
2023-01-23T12:59:09.531Z,100800.79
2023-01-23T13:01:59.259Z,100802.77
2023-01-23T13:04:27.659Z,100802.09
2023-01-23T13:07:03.893Z,100802.98
2023-01-23T13:10:03.086Z,100802.54
2023-01-23T13:12:32.778Z,100800.81
2023-01-23T13:15:19.067Z,100802.62
2023-01-23T13:17:52.022Z,100807.23
2023-01-23T13:20:40.768Z,100811.52
2023-01-23T13:23:32.669Z,100813.86
2023-01-23T13:26:16.401Z,100817.65
2023-01-23T13:28:50.705Z,100818.98
2023-01-23T13:31:42.393Z,100821.66
2023-01-23T13:34:17.183Z,100823.09
2023-01-23T13:36:50.291Z,100821.23
2023-01-23T13:39:19.857Z,100824.42
2023-01-23T13:42:18.824Z,100827.63
2023-01-23T13:45:27.719Z,100831.37
2023-01-23T14:21:20.905Z,100835.88
2023-01-23T14:27:07.755Z,100840.86
2023-01-23T14:29:37.049Z,100844.06
2023-01-23T14:32:05.512Z,100845.88
2023-01-23T14:34:40.244Z,100843.45
2023-01-23T14:37:12.614Z,100845.95
2023-01-23T14:39:53.684Z,100848.45
2023-01-23T14:42:29.406Z,100851.50
2023-01-23T14:45:02.391Z,100852.05
2023-01-23T14:47:42.212Z,100848.94
2023-01-23T14:50:17.882Z,100847.06
2023-01-23T14:53:07.253Z,100850.63
2023-01-23T14:55:39.881Z,100851.91
2023-01-23T14:58:19.226Z,100851.96
2023-01-23T15:00:49.554Z,100850.29
2023-01-23T15:03:40.971Z,100848.58
2023-01-23T15:06:19.578Z,100848.46
2023-01-23T15:08:50.285Z,100851.86
2023-01-23T15:11:27.578Z,100852.44
2023-01-23T15:14:03.028Z,100856.14
2023-01-23T15:16:38.198Z,100858.48
2023-01-23T15:19:18.850Z,100857.64
2023-01-23T15:21:47.295Z,100860.64
2023-01-23T15:24:17.978Z,100858.54
2023-01-23T15:27:00.049Z,100857.00
2023-01-23T15:29:28.505Z,100855.31
2023-01-23T15:31:58.762Z,100860.27
2023-01-23T15:34:33.539Z,100859.25
2023-01-23T15:37:25.199Z,100860.16
2023-01-23T15:40:04.495Z,100864.42
2023-01-23T15:42:35.089Z,100862.52
2023-01-23T15:45:13.266Z,100865.70
2023-01-23T15:47:41.792Z,100865.05
2023-01-23T15:50:13.369Z,100866.82
2023-01-23T15:52:47.669Z,100868.09
2023-01-23T15:55:16.388Z,100867.55
2023-01-23T15:57:44.828Z,100868.98
2023-01-23T16:00:26.273Z,100870.39
2023-01-23T16:02:57.758Z,100870.92
2023-01-23T16:05:34.052Z,100872.54
2023-01-23T16:08:04.857Z,100874.64
2023-01-23T16:10:39.910Z,100874.85
2023-01-23T16:13:12.901Z,100875.73
2023-01-23T16:15:41.819Z,100878.71
2023-01-23T16:18:10.413Z,100879.40
2023-01-23T16:20:43.734Z,100885.52
2023-01-23T16:23:42.383Z,100887.43
2023-01-23T16:26:24.683Z,100887.08
2023-01-23T16:28:55.523Z,100888.65
2023-01-23T16:31:27.996Z,100890.56
2023-01-23T16:33:57.330Z,100892.13
2023-01-23T16:36:25.736Z,100893.18
2023-01-23T16:38:56.636Z,100899.13
2023-01-23T16:41:25.076Z,100898.05
2023-01-23T16:43:53.393Z,100898.06
2023-01-23T16:46:21.748Z,100895.23
2023-01-23T16:48:53.600Z,100899.09
2023-01-23T16:51:25.060Z,100898.04
2023-01-23T16:53:58.648Z,100893.31
2023-01-23T16:56:35.544Z,100892.79
2023-01-23T16:59:14.423Z,100897.67
2023-01-23T17:01:45.978Z,100893.13
2023-01-23T17:04:18.010Z,100896.98
2023-01-23T17:06:47.092Z,100896.64
2023-01-23T17:09:17.843Z,100899.61
2023-01-23T17:11:51.138Z,100902.10
2023-01-23T17:14:29.177Z,100906.31
2023-01-23T17:17:08.336Z,100905.60
2023-01-23T17:19:40.857Z,100908.77
2023-01-23T17:22:23.386Z,100908.77
2023-01-23T17:24:51.844Z,100905.27
2023-01-23T17:27:20.118Z,100907.56
2023-01-23T17:29:49.424Z,100909.49
2023-01-23T17:32:33.131Z,100913.70
2023-01-23T17:35:04.989Z,100910.73
2023-01-23T17:37:35.633Z,100910.91
2023-01-23T17:40:04.285Z,100912.66
2023-01-23T17:42:35.720Z,100913.36
2023-01-23T17:45:04.565Z,100911.09
2023-01-23T17:47:35.131Z,100913.91
2023-01-23T17:50:03.503Z,100907.46
2023-01-23T17:52:32.024Z,100907.84
2023-01-23T17:55:00.300Z,100908.89
2023-01-23T17:57:28.704Z,100909.77
2023-01-23T17:59:57.232Z,100912.56
2023-01-23T18:02:29.015Z,100915.54
2023-01-23T18:04:57.439Z,100916.77
2023-01-23T18:07:25.762Z,100916.45
2023-01-23T18:09:56.416Z,100914.17
2023-01-23T18:12:41.702Z,100913.66
2023-01-23T18:15:37.563Z,100916.64
2023-01-23T18:18:27.544Z,100916.30
2023-01-23T18:20:56.343Z,100920.52
2023-01-23T18:23:26.983Z,100919.65
2023-01-23T18:26:24.219Z,100923.17
2023-01-23T18:29:34.624Z,100921.25
2023-01-23T18:32:26.828Z,100923.37
2023-01-23T18:35:25.234Z,100923.89
2023-01-23T18:38:07.858Z,100927.73
2023-01-23T18:40:49.501Z,100925.29
2023-01-23T18:43:40.076Z,100927.39
2023-01-23T18:46:20.897Z,100927.04
2023-01-23T18:48:50.165Z,100929.48
2023-01-23T18:51:43.871Z,100929.83
2023-01-23T18:54:18.096Z,100927.56
2023-01-23T18:57:24.232Z,100926.67
2023-01-23T19:00:20.336Z,100933.67
2023-01-23T19:02:52.808Z,100935.59
2023-01-23T19:05:30.879Z,100937.52
2023-01-23T19:08:01.046Z,100935.92
2023-01-23T19:10:47.648Z,100934.67
2023-01-23T19:13:21.694Z,100933.09
2023-01-23T19:16:05.682Z,100935.54
2023-01-23T19:18:47.699Z,100934.84
2023-01-23T19:21:18.198Z,100935.35
2023-01-23T19:24:01.635Z,100935.52
2023-01-23T19:26:33.410Z,100934.98
2023-01-23T19:29:22.013Z,100935.15
2023-01-23T19:32:04.075Z,100934.10
2023-01-23T19:34:35.781Z,100935.85
2023-01-23T19:37:04.384Z,100932.34
2023-01-23T19:39:33.510Z,100935.65
2023-01-23T19:42:02.808Z,100937.94
2023-01-23T19:44:33.974Z,100937.76
2023-01-23T19:47:03.866Z,100941.27
2023-01-23T19:49:32.304Z,100942.50
2023-01-23T19:52:00.729Z,100941.80
2023-01-23T19:54:29.122Z,100940.21
2023-01-23T19:56:57.583Z,100937.08
2023-01-23T19:59:26.672Z,100941.29
2023-01-23T20:01:55.347Z,100941.30
2023-01-23T20:04:24.445Z,100942.17
2023-01-23T20:06:52.834Z,100940.05
2023-01-23T20:09:22.210Z,100933.38
2023-01-23T20:11:52.462Z,100933.73
2023-01-23T20:14:23.857Z,100934.10
2023-01-23T20:16:53.857Z,100929.34
2023-01-23T20:19:28.364Z,100932.66
2023-01-23T20:21:57.095Z,100934.94
2023-01-23T20:24:25.500Z,100938.45
2023-01-23T20:26:54.039Z,100938.27
2023-01-23T20:29:23.900Z,100941.41
2023-01-23T20:31:54.352Z,100939.16
2023-01-23T20:34:22.920Z,100940.75
2023-01-23T20:36:51.479Z,100944.61
2023-01-23T20:39:19.910Z,100945.50
2023-01-23T20:41:48.389Z,100949.38
2023-01-23T20:44:16.810Z,100947.10
2023-01-23T20:46:46.076Z,100945.35
2023-01-23T20:49:14.584Z,100945.89
2023-01-23T20:51:43.080Z,100944.83
2023-01-23T20:54:11.477Z,100942.20
2023-01-23T20:56:39.988Z,100943.92
2023-01-23T20:59:19.144Z,100942.88
2023-01-23T21:02:06.580Z,100947.80
2023-01-23T21:04:37.142Z,100950.27
2023-01-23T21:07:05.700Z,100956.39
2023-01-23T21:09:34.018Z,100958.14
2023-01-23T21:12:03.236Z,100952.35
2023-01-23T21:14:31.921Z,100953.60
2023-01-23T21:17:00.344Z,100953.98
2023-01-23T21:19:28.759Z,100957.65
2023-01-23T21:21:57.747Z,100960.63
2023-01-23T21:24:26.241Z,100959.40
2023-01-23T21:26:54.701Z,100962.86
2023-01-23T21:29:23.219Z,100962.70
2023-01-23T21:31:52.823Z,100960.77
2023-01-23T21:34:21.182Z,100962.69
2023-01-23T21:36:49.752Z,100960.59
2023-01-23T21:39:19.544Z,100960.77
2023-01-23T21:41:57.414Z,100962.35
2023-01-23T21:44:29.464Z,100966.38
2023-01-23T21:46:57.777Z,100967.11
2023-01-23T21:49:26.123Z,100961.86
2023-01-23T21:51:54.604Z,100959.92
2023-01-23T21:54:22.996Z,100960.94
2023-01-23T21:56:51.377Z,100958.30
2023-01-23T21:59:19.789Z,100958.31
2023-01-23T22:01:48.280Z,100958.48
2023-01-23T22:04:19.411Z,100957.93
2023-01-23T22:06:52.061Z,100957.23
2023-01-23T22:09:24.937Z,100954.59
2023-01-23T22:11:55.079Z,100958.46
2023-01-23T22:14:24.226Z,100963.02
2023-01-23T22:16:52.736Z,100958.81
2023-01-23T22:19:24.924Z,100959.86
2023-01-23T22:21:55.530Z,100955.14
2023-01-23T22:24:23.966Z,100949.73
2023-01-23T22:26:52.256Z,100948.67
2023-01-23T22:29:22.797Z,100952.68
2023-01-23T22:31:52.260Z,100947.61
2023-01-23T22:34:21.080Z,100950.77
2023-01-23T22:36:49.444Z,100950.25
2023-01-23T22:39:19.846Z,100950.80
2023-01-23T22:41:50.462Z,100947.13
2023-01-23T22:44:19.378Z,100947.83
2023-01-23T22:46:50.626Z,100948.90
2023-01-23T22:49:19.091Z,100953.45
2023-01-23T22:51:48.118Z,100952.06
2023-01-23T22:54:16.396Z,100951.55
2023-01-23T22:56:44.802Z,100954.18
2023-01-23T22:59:13.162Z,100958.06
2023-01-23T23:01:41.539Z,100956.85
2023-01-23T23:04:10.087Z,100958.95
2023-01-23T23:06:38.687Z,100963.00
2023-01-23T23:09:07.161Z,100961.80
2023-01-23T23:11:37.364Z,100956.02
2023-01-23T23:14:05.683Z,100960.91
2023-01-23T23:16:34.093Z,100961.09
2023-01-23T23:19:04.080Z,100960.39
2023-01-23T23:21:36.255Z,100964.23
2023-01-23T23:24:08.052Z,100962.83
2023-01-23T23:26:36.517Z,100966.16
2023-01-23T23:29:05.528Z,100963.88
2023-01-23T23:31:34.632Z,100964.06
2023-01-23T23:34:03.288Z,100966.34
2023-01-23T23:36:32.002Z,100963.02
2023-01-23T23:39:00.506Z,100960.03
2023-01-23T23:41:28.897Z,100961.80
2023-01-23T23:43:57.264Z,100959.70
2023-01-23T23:46:25.674Z,100952.00
2023-01-23T23:48:54.456Z,100954.65
2023-01-23T23:51:23.196Z,100957.27
2023-01-23T23:53:51.538Z,100954.13
2023-01-23T23:56:24.670Z,100955.70
2023-01-23T23:58:54.472Z,100954.48
